createdAt,value
2023-05-02T00:02:34.357Z,6.53
2023-05-02T00:05:32.566Z,7.20
2023-05-02T00:08:30.506Z,6.78
2023-05-02T00:11:28.457Z,6.70
2023-05-02T00:14:26.632Z,7.45
2023-05-02T00:17:24.641Z,6.80
2023-05-02T00:20:22.681Z,6.85
2023-05-02T00:23:20.602Z,6.50
2023-05-02T00:26:18.418Z,6.78
2023-05-02T00:29:16.420Z,6.85
2023-05-02T00:32:14.235Z,7.05
2023-05-02T00:35:12.509Z,6.65
2023-05-02T00:38:10.700Z,6.60
2023-05-02T00:41:08.719Z,6.50
2023-05-02T00:44:06.636Z,6.68
2023-05-02T00:47:04.998Z,7.40
2023-05-02T00:50:03.023Z,7.78
2023-05-02T00:53:03.359Z,6.60
2023-05-02T00:56:02.854Z,7.15
2023-05-02T00:59:02.113Z,6.88
2023-05-02T01:02:25.133Z,6.97
2023-05-02T01:05:30.956Z,6.70
2023-05-02T01:08:40.867Z,7.35
2023-05-02T01:12:04.044Z,8.70
2023-05-02T01:15:06.617Z,8.57
2023-05-02T01:18:07.451Z,8.73
2023-05-02T01:21:09.209Z,9.80
2023-05-02T01:24:18.221Z,11.13
2023-05-02T01:27:28.779Z,10.13
2023-05-02T01:30:30.114Z,11.60
2023-05-02T01:33:31.141Z,12.02
2023-05-02T01:36:33.199Z,12.02
2023-05-02T01:39:32.140Z,12.00
2023-05-02T01:42:31.493Z,10.38
2023-05-02T01:45:29.975Z,11.20
2023-05-02T01:48:29.323Z,11.45
2023-05-02T01:51:33.768Z,11.45
2023-05-02T01:54:34.238Z,10.75
2023-05-02T01:57:32.882Z,11.15
2023-05-02T02:00:32.370Z,10.75
2023-05-02T02:03:32.021Z,11.75
2023-05-02T02:06:30.157Z,10.23
2023-05-02T02:09:28.159Z,13.52
2023-05-02T02:12:30.252Z,12.68
2023-05-02T02:15:31.149Z,12.98
2023-05-02T02:18:32.431Z,13.90
2023-05-02T02:21:33.818Z,14.00
2023-05-02T02:24:33.185Z,13.43
2023-05-02T02:27:31.319Z,14.95
2023-05-02T02:30:29.370Z,14.52
2023-05-02T02:33:31.749Z,11.90
2023-05-02T02:36:37.425Z,12.70
2023-05-02T02:39:55.964Z,12.98
2023-05-02T02:43:20.375Z,11.25
2023-05-02T02:46:51.137Z,11.05
2023-05-02T02:49:52.323Z,11.60
2023-05-02T02:52:57.726Z,11.65
2023-05-02T02:56:13.209Z,11.30
2023-05-02T02:59:21.650Z,11.93
2023-05-02T03:02:23.961Z,11.52
2023-05-02T03:05:23.345Z,12.03
2023-05-02T03:08:21.426Z,11.60
2023-05-02T03:11:19.246Z,9.90
2023-05-02T03:14:17.214Z,9.32
2023-05-02T03:17:15.015Z,9.73
2023-05-02T03:20:12.979Z,9.13
2023-05-02T03:23:10.761Z,10.85
2023-05-02T03:26:09.013Z,10.85
2023-05-02T03:29:07.323Z,12.10
2023-05-02T03:32:05.423Z,11.07
2023-05-02T03:35:03.372Z,9.40
2023-05-02T03:38:01.884Z,9.20
2023-05-02T03:41:00.899Z,8.93
2023-05-02T03:43:58.801Z,9.20
2023-05-02T03:46:56.674Z,9.32
2023-05-02T03:49:55.231Z,9.98
2023-05-02T03:52:54.031Z,11.15
2023-05-02T03:55:52.399Z,10.40
2023-05-02T03:58:50.645Z,9.70
2023-05-02T04:01:51.853Z,10.27
2023-05-02T04:04:50.307Z,9.80
2023-05-02T04:07:48.276Z,9.60
2023-05-02T04:10:46.330Z,9.70
2023-05-02T04:13:44.354Z,10.48
2023-05-02T04:16:42.168Z,11.30
2023-05-02T04:19:41.138Z,10.18
2023-05-02T04:22:40.295Z,10.65
2023-05-02T04:25:38.205Z,10.52
2023-05-02T04:28:36.906Z,9.63
2023-05-02T04:31:36.576Z,12.80
2023-05-02T04:34:34.720Z,10.95
2023-05-02T04:37:32.773Z,11.48
2023-05-02T04:40:30.631Z,10.20
2023-05-02T04:43:28.571Z,9.88
2023-05-02T04:46:26.379Z,10.10
2023-05-02T04:49:24.329Z,10.95
2023-05-02T04:52:22.197Z,11.32
2023-05-02T04:55:20.389Z,10.65
2023-05-02T04:58:18.292Z,12.23
2023-05-02T05:01:16.314Z,11.90
2023-05-02T05:04:14.450Z,11.63
2023-05-02T05:07:12.553Z,12.23
2023-05-02T05:10:11.992Z,13.07
2023-05-02T05:13:10.236Z,13.68
2023-05-02T05:16:08.523Z,14.13
2023-05-02T05:19:06.519Z,14.55
2023-05-02T05:22:04.347Z,15.38
2023-05-02T05:25:02.322Z,14.57
2023-05-02T05:28:01.370Z,15.02
2023-05-02T05:30:59.223Z,15.18
2023-05-02T05:33:57.151Z,14.88
2023-05-02T05:36:55.082Z,15.63
2023-05-02T05:39:53.533Z,15.50
2023-05-02T05:42:51.506Z,15.20
2023-05-02T05:45:49.298Z,14.07
2023-05-02T05:48:47.261Z,15.35
2023-05-02T05:51:45.097Z,14.18
2023-05-02T05:54:43.001Z,13.70
2023-05-02T05:57:40.912Z,14.57
2023-05-02T06:00:39.832Z,15.68
2023-05-02T06:03:37.741Z,15.48
2023-05-02T06:06:36.253Z,15.63
2023-05-02T06:09:34.714Z,14.40
2023-05-02T06:12:32.600Z,14.88
2023-05-02T06:15:30.450Z,14.57
2023-05-02T06:18:28.334Z,14.45
2023-05-02T06:21:26.787Z,16.08
2023-05-02T06:24:24.755Z,14.82
2023-05-02T06:27:22.602Z,15.48
2023-05-02T06:30:20.461Z,14.38
2023-05-02T06:33:18.270Z,14.10
2023-05-02T06:36:16.419Z,15.57
2023-05-02T06:39:14.226Z,12.55
2023-05-02T06:42:12.274Z,13.13
2023-05-02T06:45:10.515Z,12.85
2023-05-02T06:48:09.240Z,14.10
2023-05-02T06:51:07.178Z,14.27
2023-05-02T06:54:05.634Z,14.52
2023-05-02T06:57:04.048Z,13.05
2023-05-02T07:00:02.378Z,12.43
2023-05-02T07:03:00.598Z,12.82
2023-05-02T07:05:58.898Z,13.40
2023-05-02T07:08:57.063Z,13.93
2023-05-02T07:11:55.008Z,13.73
2023-05-02T07:14:52.861Z,15.15
2023-05-02T07:17:51.072Z,13.93
2023-05-02T07:20:49.192Z,14.38
2023-05-02T07:23:47.160Z,12.27
2023-05-02T07:26:45.532Z,13.20
2023-05-02T07:29:44.092Z,12.63
2023-05-02T07:32:41.965Z,13.63
2023-05-02T07:35:40.117Z,13.77
2023-05-02T07:38:38.141Z,13.40
2023-05-02T07:41:36.288Z,14.95
2023-05-02T07:44:35.526Z,16.63
2023-05-02T07:47:33.489Z,15.55
2023-05-02T07:50:31.553Z,14.70
2023-05-02T07:53:29.894Z,13.98
2023-05-02T07:56:28.247Z,13.32
2023-05-02T07:59:26.305Z,13.23
2023-05-02T08:02:24.623Z,13.73
2023-05-02T08:05:22.715Z,14.18
2023-05-02T08:08:20.696Z,14.85
2023-05-02T08:11:18.633Z,14.32
2023-05-02T08:14:17.780Z,14.10
2023-05-02T08:17:15.791Z,14.82
2023-05-02T08:20:13.817Z,14.45
2023-05-02T08:23:11.708Z,13.90
2023-05-02T08:26:10.297Z,13.68
2023-05-02T08:29:08.268Z,14.00
2023-05-02T08:32:06.301Z,13.35
2023-05-02T08:35:04.507Z,12.80
2023-05-02T08:38:02.373Z,12.40
2023-05-02T08:41:02.969Z,12.68
2023-05-02T08:44:01.364Z,13.38
2023-05-02T08:47:01.614Z,13.05
2023-05-02T08:50:01.263Z,13.73
2023-05-02T08:53:00.834Z,13.50
2023-05-02T08:56:00.417Z,12.07
2023-05-02T08:58:58.309Z,12.55
2023-05-02T09:02:01.717Z,11.68
2023-05-02T09:05:07.289Z,11.45
2023-05-02T09:08:05.752Z,13.30
2023-05-02T09:11:04.923Z,13.07
2023-05-02T09:14:04.913Z,10.68
2023-05-02T09:17:03.146Z,11.15
2023-05-02T09:20:02.097Z,11.88
2023-05-02T09:23:00.034Z,11.82
2023-05-02T09:25:57.859Z,11.43
2023-05-02T09:28:56.492Z,10.95
2023-05-02T09:31:56.528Z,10.70
2023-05-02T09:35:10.711Z,10.68
2023-05-02T09:38:21.637Z,10.88
2023-05-02T09:41:21.708Z,10.77
2023-05-02T09:44:21.961Z,10.60
2023-05-02T09:47:28.628Z,10.93
2023-05-02T09:50:36.882Z,11.88
2023-05-02T09:53:45.604Z,10.63
2023-05-02T09:56:54.780Z,9.95
2023-05-02T09:59:58.334Z,9.57
2023-05-02T10:02:56.438Z,9.65
2023-05-02T10:05:55.594Z,8.95
2023-05-02T10:08:53.540Z,9.10
2023-05-02T10:11:54.716Z,9.02
2023-05-02T10:15:01.289Z,9.93
2023-05-02T10:18:01.983Z,8.52
2023-05-02T10:21:04.800Z,9.43
2023-05-02T10:24:04.933Z,9.43
2023-05-02T10:27:06.166Z,8.90
2023-05-02T10:30:05.384Z,9.27
2023-05-02T10:33:05.424Z,9.13
2023-05-02T10:36:04.287Z,8.98
2023-05-02T10:39:03.145Z,8.55
2023-05-02T10:42:04.188Z,8.77
2023-05-02T10:45:02.326Z,8.52
2023-05-02T10:48:20.212Z,7.90
2023-05-02T10:51:30.461Z,9.15
2023-05-02T10:54:28.425Z,8.80
2023-05-02T10:57:26.333Z,8.07
2023-05-02T11:00:34.433Z,7.55
2023-05-02T11:04:03.086Z,8.10
2023-05-02T11:07:21.058Z,7.72
2023-05-02T11:10:27.760Z,7.97
2023-05-02T11:13:56.303Z,7.30
2023-05-02T11:17:10.202Z,8.07
2023-05-02T11:20:21.996Z,7.63
2023-05-02T11:23:26.408Z,7.90
2023-05-02T11:26:24.884Z,6.80
2023-05-02T11:30:02.392Z,7.78
2023-05-02T11:33:17.950Z,7.10
2023-05-02T11:36:15.827Z,6.70
2023-05-02T11:39:21.714Z,6.82
2023-05-02T11:42:34.998Z,7.30
2023-05-02T11:45:37.005Z,6.50
2023-05-02T11:48:34.793Z,7.40
2023-05-02T11:51:32.940Z,7.03
2023-05-02T11:54:32.003Z,6.68
2023-05-02T11:57:34.438Z,6.95
2023-05-02T12:00:32.420Z,6.38
2023-05-02T12:03:33.249Z,6.97
2023-05-02T12:06:31.156Z,7.00
2023-05-02T12:09:29.185Z,5.85
2023-05-02T12:12:27.054Z,6.45
2023-05-02T12:15:25.134Z,6.53
2023-05-02T12:18:24.735Z,6.75
2023-05-02T12:21:22.817Z,6.47
2023-05-02T12:24:20.770Z,7.47
2023-05-02T12:27:18.666Z,5.97
2023-05-02T12:30:27.578Z,6.47
2023-05-02T12:33:29.529Z,6.25
2023-05-02T12:36:29.969Z,5.75
2023-05-02T12:39:43.874Z,5.45
2023-05-02T12:42:42.115Z,5.30
2023-05-02T12:45:40.612Z,5.40
2023-05-02T12:48:38.501Z,5.60
2023-05-02T12:51:37.255Z,6.22
2023-05-02T12:54:35.043Z,5.60
2023-05-02T12:57:33.683Z,5.82
2023-05-02T13:00:33.677Z,5.63
2023-05-02T13:03:35.844Z,5.50
2023-05-02T13:06:38.412Z,5.55
2023-05-02T13:09:36.403Z,6.38
2023-05-02T13:12:37.707Z,5.57
2023-05-02T13:15:35.837Z,5.75
2023-05-02T13:18:33.718Z,5.88
2023-05-02T13:21:32.235Z,5.60
2023-05-02T13:24:30.249Z,4.85
2023-05-02T13:27:28.797Z,5.47
2023-05-02T13:30:26.782Z,6.03
2023-05-02T13:33:25.121Z,5.30
2023-05-02T13:36:24.948Z,6.00
2023-05-02T13:39:23.075Z,6.90
2023-05-02T13:42:20.859Z,5.00
2023-05-02T13:45:18.831Z,5.18
2023-05-02T13:48:16.668Z,4.63
2023-05-02T13:51:14.571Z,6.30
2023-05-02T13:54:12.761Z,6.85
2023-05-02T13:57:10.736Z,5.72
2023-05-02T14:00:10.381Z,5.60
2023-05-02T14:03:08.381Z,5.43
2023-05-02T14:06:06.493Z,5.72
2023-05-02T14:09:05.727Z,6.38
2023-05-02T14:12:04.854Z,5.95
2023-05-02T14:15:02.860Z,5.65
2023-05-02T14:18:00.684Z,6.10
2023-05-02T14:21:00.618Z,5.47
2023-05-02T14:23:58.773Z,6.40
2023-05-02T14:26:56.749Z,7.57
2023-05-02T14:29:54.639Z,6.90
2023-05-02T14:32:53.040Z,6.43
2023-05-02T14:35:50.905Z,7.30
2023-05-02T14:38:48.830Z,5.90
2023-05-02T14:41:46.648Z,7.13
2023-05-02T14:44:44.529Z,7.18
2023-05-02T14:47:42.439Z,7.13
2023-05-02T14:50:41.009Z,7.05
2023-05-02T14:53:39.722Z,7.72
2023-05-02T14:56:37.622Z,9.23
2023-05-02T14:59:36.558Z,8.55
2023-05-02T15:02:35.283Z,8.93
2023-05-02T15:05:33.885Z,8.90
2023-05-02T15:08:31.750Z,8.45
2023-05-02T15:11:29.604Z,9.07
2023-05-02T15:14:27.534Z,9.15
2023-05-02T15:17:25.334Z,7.85
2023-05-02T15:20:23.392Z,8.40
2023-05-02T15:23:21.332Z,9.27
2023-05-02T15:26:19.330Z,8.57
2023-05-02T15:29:17.213Z,7.93
2023-05-02T15:32:15.179Z,8.20
2023-05-02T15:35:13.051Z,8.85
2023-05-02T15:38:10.972Z,7.97
2023-05-02T15:41:09.593Z,8.23
2023-05-02T15:44:07.481Z,7.75
2023-05-02T15:47:06.060Z,7.28
2023-05-02T15:50:04.393Z,7.93
2023-05-02T15:53:02.418Z,8.55
2023-05-02T15:56:00.357Z,8.60
2023-05-02T15:58:58.193Z,7.90
2023-05-02T16:01:56.439Z,8.00
2023-05-02T16:04:54.260Z,6.72
2023-05-02T16:07:52.521Z,7.25
2023-05-02T16:10:50.304Z,6.80
2023-05-02T16:13:48.196Z,6.80
2023-05-02T16:16:46.280Z,6.53
2023-05-02T16:19:44.320Z,6.95
2023-05-02T16:22:49.442Z,6.93
2023-05-02T16:25:47.393Z,7.07
2023-05-02T16:28:45.309Z,7.30
2023-05-02T16:31:44.631Z,7.00
2023-05-02T16:34:42.793Z,6.90
2023-05-02T16:37:42.119Z,7.82
2023-05-02T16:40:41.481Z,7.70
2023-05-02T16:43:39.445Z,7.93
2023-05-02T16:46:37.878Z,7.80
2023-05-02T16:49:35.905Z,7.95
2023-05-02T16:52:33.817Z,7.40
2023-05-02T16:55:31.982Z,7.70
2023-05-02T16:58:30.041Z,7.53
2023-05-02T17:01:27.976Z,6.75
2023-05-02T17:04:25.899Z,7.38
2023-05-02T17:07:23.773Z,7.30
2023-05-02T17:10:21.566Z,7.63
2023-05-02T17:13:19.558Z,7.50
2023-05-02T17:16:18.552Z,7.55
2023-05-02T17:19:16.449Z,7.43
2023-05-02T17:22:15.151Z,6.88
2023-05-02T17:25:13.120Z,8.77
2023-05-02T17:28:11.043Z,7.70
2023-05-02T17:31:09.112Z,6.88
2023-05-02T17:34:07.645Z,7.20
2023-05-02T17:37:06.240Z,6.53
2023-05-02T17:40:05.867Z,6.60
2023-05-02T17:43:03.876Z,6.97
2023-05-02T17:46:07.067Z,7.43
2023-05-02T17:49:05.161Z,7.57
2023-05-02T17:52:03.059Z,6.57
2023-05-02T17:55:01.033Z,6.80
2023-05-02T17:57:59.866Z,6.95
2023-05-02T18:00:59.022Z,6.45
2023-05-02T18:03:57.070Z,6.70
2023-05-02T18:06:55.254Z,7.07
2023-05-02T18:09:53.372Z,6.82
2023-05-02T18:12:51.542Z,6.70
2023-05-02T18:15:59.227Z,6.70
2023-05-02T18:18:57.595Z,6.10
2023-05-02T18:21:55.413Z,8.15
2023-05-02T18:24:54.575Z,8.25
2023-05-02T18:27:52.406Z,8.80
2023-05-02T18:30:50.330Z,9.60
2023-05-02T18:33:48.304Z,9.95
2023-05-02T18:36:46.401Z,13.40
2023-05-02T18:39:44.169Z,13.48
2023-05-02T18:42:42.038Z,10.55
2023-05-02T18:45:39.881Z,11.68
2023-05-02T18:48:38.640Z,10.23
2023-05-02T18:51:36.653Z,9.60
2023-05-02T18:54:34.604Z,10.07
2023-05-02T18:57:34.237Z,10.10
2023-05-02T19:00:32.854Z,9.27
2023-05-02T19:03:32.477Z,9.77
2023-05-02T19:06:32.160Z,12.05
2023-05-02T19:09:31.146Z,10.82
2023-05-02T19:12:29.540Z,11.43
2023-05-02T19:15:30.953Z,11.20
2023-05-02T19:18:28.873Z,11.85
2023-05-02T19:21:27.823Z,8.52
2023-05-02T19:24:26.441Z,8.85
2023-05-02T19:27:24.456Z,7.60
2023-05-02T19:30:22.460Z,8.00
2023-05-02T19:33:20.330Z,8.05
2023-05-02T19:36:19.493Z,7.80
2023-05-02T19:39:17.304Z,7.55
2023-05-02T19:42:15.216Z,7.68
2023-05-02T19:45:14.291Z,7.53
2023-05-02T19:48:12.845Z,9.27
2023-05-02T19:51:12.096Z,8.82
2023-05-02T19:54:10.011Z,8.20
2023-05-02T19:57:07.763Z,8.63
2023-05-02T20:00:06.942Z,8.15
2023-05-02T20:03:05.591Z,7.97
2023-05-02T20:06:03.712Z,9.18
2023-05-02T20:09:01.531Z,8.88
2023-05-02T20:11:59.434Z,9.90
2023-05-02T20:14:57.236Z,9.35
2023-05-02T20:17:59.036Z,10.50
2023-05-02T20:20:57.048Z,10.60
2023-05-02T20:23:54.981Z,10.13
2023-05-02T20:26:52.776Z,8.75
2023-05-02T20:29:52.569Z,7.95
2023-05-02T20:32:50.634Z,7.40
2023-05-02T20:35:55.657Z,8.00
2023-05-02T20:38:53.593Z,6.97
2023-05-02T20:41:51.497Z,7.25
2023-05-02T20:44:55.701Z,6.72
2023-05-02T20:47:53.768Z,7.05
2023-05-02T20:50:54.933Z,7.07
2023-05-02T20:53:52.901Z,7.13
2023-05-02T20:56:50.688Z,7.03
2023-05-02T20:59:48.565Z,7.68
2023-05-02T21:02:46.480Z,6.70
2023-05-02T21:05:44.494Z,6.47
2023-05-02T21:08:42.344Z,7.05
2023-05-02T21:11:41.270Z,6.30
2023-05-02T21:14:39.152Z,6.90
2023-05-02T21:17:39.409Z,6.97
2023-05-02T21:20:38.720Z,6.15
2023-05-02T21:23:36.751Z,6.40
2023-05-02T21:26:35.053Z,6.30
2023-05-02T21:29:32.958Z,6.15
2023-05-02T21:32:30.827Z,6.32
2023-05-02T21:35:29.407Z,6.40
2023-05-02T21:38:27.746Z,6.38
2023-05-02T21:41:25.677Z,6.07
2023-05-02T21:44:23.594Z,5.88
2023-05-02T21:47:22.382Z,5.97
2023-05-02T21:50:20.329Z,6.15
2023-05-02T21:53:18.233Z,7.15
2023-05-02T21:56:16.166Z,6.68
2023-05-02T21:59:14.108Z,5.85
2023-05-02T22:02:12.404Z,6.28
2023-05-02T22:05:12.090Z,5.85
2023-05-02T22:08:11.438Z,5.88
2023-05-02T22:11:09.936Z,6.22
2023-05-02T22:14:08.045Z,5.90
2023-05-02T22:17:05.924Z,5.57
2023-05-02T22:20:04.850Z,6.28
2023-05-02T22:23:04.729Z,6.15
2023-05-02T22:26:02.501Z,6.05
2023-05-02T22:29:00.432Z,6.05
2023-05-02T22:31:58.226Z,6.40
2023-05-02T22:34:56.265Z,6.30
2023-05-02T22:37:54.128Z,6.72
2023-05-02T22:40:52.076Z,7.53
2023-05-02T22:43:50.892Z,7.97
2023-05-02T22:46:49.006Z,7.78
2023-05-02T22:49:46.893Z,8.60
2023-05-02T22:52:45.197Z,8.38
2023-05-02T22:55:43.740Z,8.75
2023-05-02T22:58:41.820Z,8.10
2023-05-02T23:01:39.663Z,8.32
2023-05-02T23:04:37.612Z,8.50
2023-05-02T23:07:35.782Z,8.18
2023-05-02T23:10:33.725Z,8.07
2023-05-02T23:13:31.695Z,8.50
2023-05-02T23:16:29.686Z,8.57
2023-05-02T23:19:27.570Z,8.07
2023-05-02T23:22:25.525Z,7.38
2023-05-02T23:25:26.890Z,7.95
2023-05-02T23:28:24.907Z,7.47
2023-05-02T23:31:23.066Z,7.35
2023-05-02T23:34:22.628Z,8.35
2023-05-02T23:37:20.489Z,8.23
2023-05-02T23:40:18.501Z,8.90
2023-05-02T23:43:16.350Z,7.65
2023-05-02T23:46:14.284Z,9.10
2023-05-02T23:49:12.058Z,8.60
2023-05-02T23:52:10.036Z,8.32
2023-05-02T23:55:11.061Z,8.27
2023-05-02T23:58:09.012Z,8.98
